Jacksonville, Vermont
Current Conditions -  °F | °C
As of 6:52 PM on Sunday 25 Jan 2015 (Local Time) from KAQW Reporting Station
Clear Clear  
Wind Chill:   Ceiling: Unl
Heat Index: 18°   Visibility: 10mi
Dew Point:   Wind: 7mph
Humidity: 52%   Direction: 260°W
Pressure: 29.92"   Gusts: NA
Location:  42.8°N, 72.82°W
Report Text: KAQW 252352Z AUTO 26006KT 10SM CLR M08/M16 A2992 RMK AO2 SLP141 T10781161 11022 21083 53038
Loading
Personal Weather Stations






























Interactive Weather Map New forecast layout! Learn more

10-Day Weather Forecast

Advertisements
Track Severe Weather on mobile